Terminal Aerodrome Forecast
Issued by NWS

Home | Current Version | Previous Version | Text Only | Print | Product List | Glossary On
Versions: 1 2 3 4 5 6 7 8 9 10 11 12 13 14 15
000
FTUS46 KPDT 111700
TAFDLS
TAF
KDLS 111720Z 1118/1218 32007KT P6SM FEW250
     FM112100 32011KT P6SM SCT150 SCT200
     FM120600 31006KT P6SM FEW100 SCT120
     FM121200 31005KT P6SM VCSH SCT100 BKN120=

USA.gov is the U.S. government's official web portal to all federal, state and local government web resources and services.